Time;durP1;ratioP1;P1;durP2;ratioP2;P2;SDS_P1;SDS_P2;PMS_P1;PMS_P2;Temp;Humidity;BMP_temperature;BMP_pressure;BME280_temperature;BME280_humidity;BME280_pressure;Samples;Min_cycle;Max_cycle;Signal;HPM_P1;HPM_P2
2021/06/24 13:48:02;;;;;;;1083.22;986.03;;;;;;;;;;5063981;28;20795;-62
2021/06/24 13:50:28;;;;;;;1085.68;988.17;;;;;;;;;;5050072;28;20536;-58
2021/06/24 13:52:54;;;;;;;1087.80;989.67;;;;;;;;;;5049760;28;20025;-58
2021/06/24 13:55:23;;;;;;;1088.68;990.35;;;;;;;;;;5050299;28;20025;-66
2021/06/24 13:57:50;;;;;;;1088.47;989.75;;;;;;;;;;5050102;28;20185;-64
2021/06/24 14:00:16;;;;;;;1090.18;991.25;;;;;;;;;;5049210;28;20036;-59
2021/06/24 14:23:17;;;;;;;1091.78;991.92;;;;;;;24.66;54.56;100036.09;5111417;27;20379;-70
2021/06/24 14:25:45;;;;;;;1083.70;985.90;;;;;;;24.92;54.35;100046.44;5095406;28;20085;-52
2021/06/24 14:28:13;;;;;;;1083.43;985.53;;;;;;;25.03;54.15;100043.34;5104891;28;20490;-52
2021/06/24 14:30:39;;;;;;;1083.40;985.60;;;;;;;25.15;53.63;100049.09;5110319;28;20475;-57
2021/06/24 14:33:08;;;;;;;1083.78;985.63;;;;;;;25.16;53.69;100047.22;5099204;28;20036;-53
2021/06/24 14:35:34;;;;;;;1083.57;985.58;;;;;;;25.05;53.87;100049.34;5109314;28;20282;-52
2021/06/24 14:37:59;;;;;;;1084.82;986.60;;;;;;;25.04;54.02;100039.66;5110536;28;20114;-52
2021/06/24 14:40:25;;;;;;;1084.00;985.78;;;;;;;25.13;53.51;100042.25;5110187;28;20024;-53
2021/06/24 14:42:50;;;;;;;1084.00;985.80;;;;;;;25.23;53.41;100038.31;5107932;28;20031;-52
2021/06/24 14:45:16;;;;;;;1083.93;985.47;;;;;;;25.18;53.04;100035.34;5104894;28;20036;-53
2021/06/24 14:47:42;;;;;;;1083.93;985.70;;;;;;;25.19;53.16;100041.53;5108014;28;20444;-61
2021/06/24 14:50:08;;;;;;;1084.20;985.72;;;;;;;25.27;52.88;100038.78;5103674;28;20036;-54
2021/06/24 14:52:33;;;;;;;1082.97;984.58;;;;;;;25.27;53.24;100037.97;5100775;28;20044;-54
2021/06/24 14:55:01;;;;;;;1084.60;985.97;;;;;;;25.30;53.30;100043.78;5105400;28;20463;-48
2021/06/24 14:57:26;;;;;;;1085.82;987.22;;;;;;;25.33;52.90;100043.44;5056345;28;20068;-54
2021/06/24 14:59:52;;;;;;;1085.35;986.72;;;;;;;25.26;53.10;100039.81;5054261;28;20029;-55
2021/06/24 15:02:17;;;;;;;1084.75;986.05;;;;;;;25.34;53.19;100030.88;5066957;28;20436;-54
2021/06/24 15:37:12;;;;;;;1086.50;987.28;;;;;;;25.12;51.10;100045.94;5069105;27;20395;-62
2021/06/24 15:39:39;;;;;;;1084.82;985.88;;;;;;;23.75;54.68;100043.66;5023672;27;20051;-61
2021/06/24 15:42:07;;;;;;;1085.65;986.60;;;;;;;22.36;58.81;100038.34;5034236;28;105297;-60
2021/06/24 15:44:35;;;;;;;1087.55;988.20;;;;;;;21.41;62.71;100052.50;5033742;28;20049;-61
2021/06/24 15:47:01;;;;;;;1085.70;986.50;;;;;;;20.70;63.85;100040.13;5033934;28;20038;-61
2021/06/24 15:49:27;;;;;;;1084.55;985.42;;;;;;;20.19;66.06;100039.72;5032468;28;20447;-60
2021/06/24 15:51:53;;;;;;;1083.07;983.97;;;;;;;19.75;67.61;100043.00;5019312;28;20113;-59
2021/06/24 15:56:03;;;;;;;1082.15;983.10;;;;;;;19.39;69.66;100044.63;5051931;28;20406;-60
2021/06/24 15:58:33;;;;;;;1082.93;983.83;;;;;;;19.22;71.28;100034.75;5044847;28;20061;-60
2021/06/24 16:01:04;;;;;;;1078.30;979.70;;;;;;;19.14;70.94;100023.03;5036418;28;20040;-60
2021/06/24 16:03:31;;;;;;;1079.43;980.65;;;;;;;19.14;70.89;100027.50;5030715;28;20339;-60
2021/06/24 16:06:00;;;;;;;1080.60;981.60;;;;;;;19.10;71.58;100021.63;5046054;28;20099;-60
2021/06/24 16:08:25;;;;;;;1078.90;980.10;;;;;;;19.08;72.00;100018.28;5011466;28;20029;-60
2021/06/24 16:10:51;;;;;;;1080.03;981.17;;;;;;;19.06;72.25;100014.09;5028208;28;20025;-60
2021/06/24 16:13:19;;;;;;;1081.03;982.25;;;;;;;19.12;69.97;100003.75;5043922;28;20103;-60
2021/06/24 16:15:44;;;;;;;1081.13;982.35;;;;;;;19.05;70.27;100009.78;5041016;28;20056;-60
2021/06/24 16:18:09;;;;;;;1080.72;981.78;;;;;;;18.98;69.75;100006.84;5038482;28;20029;-60
2021/06/24 16:20:35;;;;;;;1078.85;980.25;;;;;;;19.00;70.12;100005.75;5034559;28;20049;-60
2021/06/24 16:23:01;;;;;;;1077.60;979.13;;;;;;;18.97;70.15;99995.41;5026799;28;20463;-59
2021/06/24 16:25:29;;;;;;;1077.78;978.92;;;;;;;19.00;68.81;99994.28;5022107;28;20079;-60
2021/06/24 16:27:55;;;;;;;1080.05;981.30;;;;;;;19.02;69.75;99994.97;5049904;28;20092;-60
2021/06/24 16:30:25;;;;;;;1078.15;979.58;;;;;;;19.09;68.36;99993.44;5041283;28;20021;-60
2021/06/24 16:32:54;;;;;;;1078.00;979.05;;;;;;;19.13;66.73;99993.97;5035601;28;20034;-61
2021/06/24 16:35:24;;;;;;;1077.32;978.53;;;;;;;19.26;65.91;99983.91;5035769;28;20120;-61
2021/06/24 16:37:53;;;;;;;1079.28;980.47;;;;;;;19.32;66.95;99993.94;5031193;28;20037;-60
2021/06/24 16:40:19;;;;;;;1078.93;979.95;;;;;;;19.41;65.30;99992.25;5028615;28;20470;-61
2021/06/24 16:42:48;;;;;;;1080.63;981.63;;;;;;;19.43;65.55;99989.44;5030947;28;20317;-60
2021/06/24 16:45:20;;;;;;;1077.13;978.42;;;;;;;19.48;65.66;99980.03;5041434;28;20520;-60
2021/06/24 16:47:46;;;;;;;1078.90;979.72;;;;;;;19.47;65.61;99989.00;5041052;28;20049;-61
2021/06/24 16:50:12;;;;;;;1080.13;980.80;;;;;;;19.44;66.13;99993.75;5045216;28;20076;-61
2021/06/24 16:52:37;;;;;;;1081.07;981.58;;;;;;;19.39;67.53;99986.25;5040889;28;20413;-60
2021/06/24 16:55:04;;;;;;;1079.78;980.65;;;;;;;19.42;66.83;99983.28;5034115;28;20037;-60
2021/06/24 16:57:30;;;;;;;1080.13;981.00;;;;;;;19.40;64.75;99986.06;5031227;28;20037;-60
2021/06/24 16:59:55;;;;;;;1078.75;979.63;;;;;;;19.44;64.08;99983.16;5032908;28;20025;-60
2021/06/24 17:02:21;;;;;;;1079.88;980.72;;;;;;;19.37;65.04;99980.25;5029436;28;20022;-60
2021/06/24 17:04:47;;;;;;;1080.50;981.28;;;;;;;19.35;65.22;99983.03;5035701;28;20397;-61
2021/06/24 17:07:18;;;;;;;1080.57;980.92;;;;;;;19.41;65.53;99986.94;5044086;28;20048;-61
2021/06/24 17:09:44;;;;;;;1080.85;981.60;;;;;;;19.35;67.00;99987.53;5035254;28;20029;-60
2021/06/24 17:12:11;;;;;;;1079.47;980.38;;;;;;;19.39;66.28;99989.72;5032605;28;20029;-61
2021/06/24 17:14:39;;;;;;;1080.90;981.63;;;;;;;19.45;64.65;99988.31;5027387;28;20038;-61
2021/06/24 17:17:04;;;;;;;1080.68;981.42;;;;;;;19.42;65.83;99983.28;5009015;28;20117;-66
2021/06/24 17:19:33;;;;;;;1084.47;983.92;;;;;;;19.45;65.30;99985.66;5028809;28;20501;-68
2021/06/24 17:22:00;;;;;;;1086.25;985.38;;;;;;;19.53;65.26;99979.63;5023914;28;20474;-66
2021/06/24 17:24:26;;;;;;;1087.00;986.05;;;;;;;19.54;65.45;99975.97;5037896;28;20020;-64
2021/06/24 17:26:54;;;;;;;1082.82;982.33;;;;;;;19.53;65.79;99969.84;5026805;28;20058;-65
2021/06/24 17:29:19;;;;;;;1087.13;985.92;;;;;;;19.63;66.06;99971.63;5028688;28;20319;-65
2021/06/24 17:31:47;;;;;;;1088.18;986.75;;;;;;;19.82;64.40;99968.06;5020090;28;20045;-64
2021/06/24 17:34:13;;;;;;;1089.30;987.78;;;;;;;20.11;63.52;99965.25;5029940;28;20037;-64
2021/06/24 17:36:40;;;;;;;1091.88;989.88;;;;;;;20.28;62.64;99961.75;5022152;28;20474;-65
2021/06/24 17:39:06;;;;;;;1089.30;987.47;;;;;;;20.59;61.82;99966.69;5018860;28;20026;-64
2021/06/24 17:41:33;;;;;;;1089.95;987.85;;;;;;;20.85;61.97;99968.63;5028720;28;20173;-65
2021/06/24 17:43:58;;;;;;;1091.75;989.33;;;;;;;21.02;61.18;99964.25;5027787;28;20451;-66
2021/06/24 17:46:27;;;;;;;1090.40;987.97;;;;;;;21.20;60.81;99969.53;5023132;28;20040;-65
2021/06/24 17:48:54;;;;;;;1093.00;990.30;;;;;;;21.45;59.57;99960.72;5029913;28;20500;-65
2021/06/24 17:51:20;;;;;;;1090.50;987.78;;;;;;;21.26;59.51;99979.53;5038929;28;20029;-65
2021/06/24 17:53:45;;;;;;;1094.15;991.15;;;;;;;21.44;59.32;99988.34;5029564;28;20037;-66
2021/06/24 17:56:10;;;;;;;1090.60;987.88;;;;;;;21.28;59.27;99980.22;5015457;28;20025;-63
2021/06/24 17:58:36;;;;;;;1093.63;990.83;;;;;;;21.06;61.91;99977.09;5011746;28;20030;-64
2021/06/24 18:01:02;;;;;;;1092.80;990.17;;;;;;;20.85;61.59;99987.25;5012353;28;20025;-66
2021/06/24 18:03:30;;;;;;;1090.55;988.10;;;;;;;20.79;61.34;99985.16;5013856;28;20060;-65
2021/06/24 18:05:58;;;;;;;1091.32;988.83;;;;;;;20.69;61.08;99993.22;5023757;28;20116;-66
2021/06/24 18:08:24;;;;;;;1092.55;990.05;;;;;;;20.61;60.68;99985.19;5025644;28;20029;-65
2021/06/24 18:10:51;;;;;;;1090.90;988.53;;;;;;;20.52;62.27;99981.63;5025578;28;20022;-65
2021/06/24 18:13:16;;;;;;;1090.93;988.58;;;;;;;20.41;62.08;99984.50;5044278;28;20022;-65
2021/06/24 18:15:42;;;;;;;1092.10;989.58;;;;;;;20.31;62.98;99981.91;5015276;28;20029;-64
2021/06/24 18:18:08;;;;;;;1089.18;986.97;;;;;;;20.17;63.85;99983.22;5015127;28;20029;-65
2021/06/24 18:20:34;;;;;;;1093.00;990.30;;;;;;;20.02;65.30;99979.41;5042302;28;20493;-64
2021/06/24 18:23:02;;;;;;;1090.97;988.80;;;;;;;19.77;62.68;99977.31;5030242;28;20029;-65
2021/06/24 18:25:30;;;;;;;1092.25;989.97;;;;;;;19.70;62.34;99981.50;5022086;28;20022;-65
2021/06/24 18:27:56;;;;;;;1088.75;986.72;;;;;;;19.72;62.66;99974.25;5023170;28;20047;-65
2021/06/24 18:30:24;;;;;;;1086.93;985.15;;;;;;;19.52;63.17;99978.78;5026087;28;20013;-65
2021/06/24 18:32:50;;;;;;;1087.63;985.75;;;;;;;19.52;63.62;99976.16;5019482;28;20061;-65
2021/06/24 18:35:19;;;;;;;1089.00;986.97;;;;;;;19.46;63.94;99984.66;5020500;28;20443;-66
2021/06/24 18:37:47;;;;;;;1090.50;988.40;;;;;;;19.42;64.57;99988.59;5030443;28;20486;-67
2021/06/24 18:40:14;;;;;;;1089.82;987.63;;;;;;;19.34;65.20;99985.84;5020070;28;20026;-66
2021/06/24 18:42:42;;;;;;;1088.13;986.22;;;;;;;19.27;65.33;99990.03;5024160;28;20057;-66
2021/06/24 18:45:11;;;;;;;1089.70;987.58;;;;;;;19.24;65.93;99990.34;5022010;28;20014;-66
2021/06/24 18:47:40;;;;;;;1088.65;986.65;;;;;;;19.18;66.69;99995.22;5019253;28;20084;-67
2021/06/24 18:50:10;;;;;;;1089.60;987.58;;;;;;;19.14;66.48;99999.16;5019278;28;20105;-61
2021/06/24 18:52:36;;;;;;;1087.70;985.65;;;;;;;19.12;66.42;100006.41;5027350;28;20033;-61
2021/06/24 18:55:02;;;;;;;1087.88;985.83;;;;;;;19.12;66.56;100010.84;5026942;28;20042;-59
2021/06/24 18:57:30;;;;;;;1088.32;986.28;;;;;;;19.11;66.94;100004.72;5020831;28;20029;-59
2021/06/24 18:59:58;;;;;;;1089.13;986.90;;;;;;;19.13;66.83;100010.72;5016338;28;20037;-59
2021/06/24 19:02:25;;;;;;;1090.72;988.05;;;;;;;19.11;67.02;100011.84;5018597;28;20022;-59
2021/06/24 19:04:54;;;;;;;1088.63;986.20;;;;;;;19.09;67.35;100014.63;5023715;28;20056;-59
2021/06/24 19:07:24;;;;;;;1086.97;984.88;;;;;;;19.08;66.99;100012.97;5025563;28;20071;-59
2021/06/24 19:09:50;;;;;;;1091.13;988.13;;;;;;;19.05;67.16;100015.91;5017295;28;20033;-63
2021/06/24 19:12:21;;;;;;;1090.00;987.30;;;;;;;19.02;67.42;100021.47;5026225;28;20029;-58
2021/06/24 19:14:47;;;;;;;1090.13;987.65;;;;;;;19.02;67.12;100018.84;5030122;28;20356;-59
2021/06/24 19:17:13;;;;;;;1088.25;985.88;;;;;;;18.97;67.68;100027.22;5030369;28;20040;-59
2021/06/24 19:19:41;;;;;;;1088.05;985.28;;;;;;;18.95;68.52;100017.75;5021970;28;20017;-59
2021/06/24 19:22:07;;;;;;;1086.15;984.05;;;;;;;18.89;68.18;100020.94;5030615;28;20080;-59
2021/06/24 19:24:33;;;;;;;1086.15;984.08;;;;;;;18.85;66.64;100027.50;5028143;28;20026;-59
2021/06/24 19:26:59;;;;;;;1088.80;986.40;;;;;;;18.83;68.04;100024.16;5013368;28;20113;-59
2021/06/24 19:29:25;;;;;;;1088.50;986.25;;;;;;;18.79;69.02;100026.22;5028067;28;20339;-59
2021/06/24 19:31:53;;;;;;;1086.18;984.08;;;;;;;18.74;69.50;100029.28;5013369;28;20037;-59
2021/06/24 19:34:21;;;;;;;1087.57;985.40;;;;;;;18.73;69.85;100030.25;5013212;28;20110;-59
2021/06/24 19:36:47;;;;;;;1085.47;983.50;;;;;;;18.68;70.26;100027.19;5013879;28;20077;-59
2021/06/24 19:39:14;;;;;;;1087.70;985.42;;;;;;;18.64;70.89;100031.09;5017773;28;20418;-59
